Lr2 Pioneer — VREE7 — position and weather

sailwx.info

Track history (hours):
 
Tides and Currents Weather Stations Pressure Air Temp Water Temp Dewpoint Dewpoint Depression Visibility Wind Speed Wind Dir Waves Ship Positions

Lr2 Pioneer

Last reported at 2016-Apr-18 06:07 UTC. Time now 2016-May-06 20:39 UTC.
Position N 02°05' E 102°07'.
Warning: this ship's position is 18 days out of date.

Length 244 m; draft 8.2 m.

Type: Tanker. MMSI: 477114400.

Date/timePositionNaut miles runAvg speedWind from/ knotsBaromVisibWave heightAir tempDewpointWater temp
2016-Apr-18 06:07N 02°05' E 102°07'711.7
2016-Apr-18 05:31N 02°01' E 102°12'1111.5
2016-Apr-18 04:33N 01°55' E 102°21'1211.6
2016-Apr-18 03:33N 01°50' E 102°32'1211.7
2016-Apr-18 02:33N 01°45' E 102°42'1211.5
2016-Apr-18 01:29N 01°40' E 102°54'1111.2
2016-Apr-18 00:30N 01°34' E 103°03'2210.9
2016-Apr-17 22:29N 01°20' E 103°19'1111.3
2016-Apr-17 21:33N 01°14' E 103°28'1211.6
2016-Apr-17 20:33N 01°11' E 103°39'9 9.4
2016-Apr-17 19:33N 01°11' E 103°49'9 8.8
2016-Apr-17 18:33N 01°15' E 103°56'1 1.3
2016-Apr-17 17:31N 01°15' E 103°55'0 0.1
2016-Apr-17 16:31N 01°15' E 103°55'0 0.1
2016-Apr-17 15:25N 01°15' E 103°55'0 0.0
2016-Apr-17 14:31N 01°15' E 103°55'0 0.0
2016-Apr-17 13:31N 01°15' E 103°55'0 0.2
2016-Apr-17 12:31N 01°15' E 103°55'0 0.1
2016-Apr-17 11:31N 01°15' E 103°55'0 0.1
2016-Apr-17 10:25N 01°15' E 103°55'0 0.0
2016-Apr-17 09:19N 01°15' E 103°55'0 0.1
2016-Apr-17 08:31N 01°16' E 103°55'0 0.1
2016-Apr-17 07:25N 01°16' E 103°55'0 0.1
2016-Apr-17 06:31N 01°16' E 103°55'0 0.1
2016-Apr-17 05:31N 01°15' E 103°55'0 0.1
2016-Apr-17 04:31N 01°16' E 103°55'0 0.1
2016-Apr-17 02:28N 01°16' E 103°55'0 0.1
2016-Apr-17 01:33N 01°16' E 103°55'3 2.8
2016-Apr-17 00:33N 01°16' E 103°58'4 3.5
2016-Apr-16 23:33N 01°16' E 104°02'3 3.2
2016-Apr-16 22:33N 01°17' E 104°05'3 3.2
2016-Apr-16 21:33N 01°17' E 104°08'4 3.9
2016-Apr-16 20:27N 01°17' E 104°12'  
Track history (hours):
 
Tides and Currents Weather Stations Pressure Air Temp Water Temp Dewpoint Dewpoint Depression Visibility Wind Speed Wind Dir Waves Ship Positions

Lr2 Pioneer

Last reported at 2016-Apr-18 06:07 UTC. Time now 2016-May-06 20:39 UTC.
Position N 02°05' E 102°07'.
Warning: this ship's position is 18 days out of date.

Length 244 m; draft 8.2 m.

Type: Tanker. MMSI: 477114400.

Date/timePositionNaut miles runAvg speedWind from/ knotsBaromVisibWave heightAir tempDewpointWater temp
2016-Apr-18 06:07N 02°05' E 102°07'711.7
2016-Apr-18 05:31N 02°01' E 102°12'1111.5
2016-Apr-18 04:33N 01°55' E 102°21'1211.6
2016-Apr-18 03:33N 01°50' E 102°32'1211.7
2016-Apr-18 02:33N 01°45' E 102°42'1211.5
2016-Apr-18 01:29N 01°40' E 102°54'1111.2
2016-Apr-18 00:30N 01°34' E 103°03'2210.9
2016-Apr-17 22:29N 01°20' E 103°19'1111.3
2016-Apr-17 21:33N 01°14' E 103°28'1211.6
2016-Apr-17 20:33N 01°11' E 103°39'9 9.4
2016-Apr-17 19:33N 01°11' E 103°49'9 8.8
2016-Apr-17 18:33N 01°15' E 103°56'1 1.3
2016-Apr-17 17:31N 01°15' E 103°55'0 0.1
2016-Apr-17 16:31N 01°15' E 103°55'0 0.1
2016-Apr-17 15:25N 01°15' E 103°55'0 0.0
2016-Apr-17 14:31N 01°15' E 103°55'0 0.0
2016-Apr-17 13:31N 01°15' E 103°55'0 0.2
2016-Apr-17 12:31N 01°15' E 103°55'0 0.1
2016-Apr-17 11:31N 01°15' E 103°55'0 0.1
2016-Apr-17 10:25N 01°15' E 103°55'0 0.0
2016-Apr-17 09:19N 01°15' E 103°55'0 0.1
2016-Apr-17 08:31N 01°16' E 103°55'0 0.1
2016-Apr-17 07:25N 01°16' E 103°55'0 0.1
2016-Apr-17 06:31N 01°16' E 103°55'0 0.1
2016-Apr-17 05:31N 01°15' E 103°55'0 0.1
2016-Apr-17 04:31N 01°16' E 103°55'0 0.1
2016-Apr-17 02:28N 01°16' E 103°55'0 0.1
2016-Apr-17 01:33N 01°16' E 103°55'3 2.8
2016-Apr-17 00:33N 01°16' E 103°58'4 3.5
2016-Apr-16 23:33N 01°16' E 104°02'3 3.2
2016-Apr-16 22:33N 01°17' E 104°05'3 3.2
2016-Apr-16 21:33N 01°17' E 104°08'4 3.9
2016-Apr-16 20:27N 01°17' E 104°12'  

Dump ship's entire track history